Time,TemperatureF,DewpointF,PressureIn,WindDirection,WindDirectionDegrees,WindSpeedMPH,WindSpeedGustMPH,Humidity,HourlyPrecipIn,Conditions,Clouds,dailyrainin,SoftwareType,DateUTC
2013-04-08 00:00:00,30.4,28.0,30.05,SSE,148,0.0,0.0,91,0.00,,,0.00,meteohub,2013-04-08 04:00:00,
2013-04-08 00:05:00,30.2,27.9,30.05,SSE,148,0.0,0.0,91,0.00,,,0.00,meteohub,2013-04-08 04:05:00,
2013-04-08 00:10:00,30.0,27.7,30.05,SSE,149,0.0,0.0,91,0.00,,,0.00,meteohub,2013-04-08 04:10:00,
2013-04-08 00:15:00,29.7,27.7,30.04,SSE,148,0.0,0.0,92,0.00,,,0.00,meteohub,2013-04-08 04:15:00,
2013-04-08 00:20:00,29.5,27.5,30.04,SSE,148,0.0,0.0,92,0.00,,,0.00,meteohub,2013-04-08 04:20:00,
2013-04-08 00:25:00,29.3,27.5,30.04,SSE,148,0.0,0.0,93,0.00,,,0.00,meteohub,2013-04-08 04:25:00,
2013-04-08 00:30:00,29.1,27.3,30.04,SSE,148,0.0,0.0,93,0.00,,,0.00,meteohub,2013-04-08 04:30:00,
2013-04-08 00:35:00,28.9,27.1,30.04,SSE,148,0.0,0.0,93,0.00,,,0.00,meteohub,2013-04-08 04:35:00,
2013-04-08 00:40:00,29.1,27.7,30.05,SSE,148,0.0,0.0,94,0.00,,,0.00,meteohub,2013-04-08 04:40:00,
2013-04-08 00:45:00,28.9,27.5,30.04,SSE,148,0.0,0.0,94,0.00,,,0.00,meteohub,2013-04-08 04:45:00,
2013-04-08 00:50:00,28.8,27.3,30.03,SSE,148,0.0,0.0,94,0.00,,,0.00,meteohub,2013-04-08 04:50:00,
2013-04-08 00:55:00,28.8,27.3,30.03,SSE,148,0.0,0.0,94,0.00,,,0.00,meteohub,2013-04-08 04:55:00,
2013-04-08 01:00:00,28.6,27.1,30.02,SSE,148,0.0,0.0,94,0.00,,,0.00,meteohub,2013-04-08 05:00:00,
2013-04-08 01:05:00,28.4,27.0,30.02,SSE,148,0.0,0.0,94,0.00,,,0.00,meteohub,2013-04-08 05:05:00,
2013-04-08 01:10:00,28.2,26.8,30.02,SSE,148,0.0,0.0,94,0.00,,,0.00,meteohub,2013-04-08 05:10:00,
2013-04-08 01:15:00,28.2,27.0,30.02,SSW,197,0.0,1.0,95,0.00,,,0.00,meteohub,2013-04-08 05:15:00,
2013-04-08 01:20:00,28.4,27.1,30.02,SSW,197,0.0,1.0,95,0.00,,,0.00,meteohub,2013-04-08 05:20:00,
2013-04-08 01:25:00,28.6,27.3,30.02,SSW,195,0.0,1.0,95,0.00,,,0.00,meteohub,2013-04-08 05:25:00,
2013-04-08 01:30:00,28.4,27.1,30.02,SSW,196,0.0,1.0,95,0.00,,,0.00,meteohub,2013-04-08 05:30:00,
2013-04-08 01:35:00,28.4,27.1,30.02,SSW,196,0.0,0.0,95,0.00,,,0.00,meteohub,2013-04-08 05:35:00,
2013-04-08 01:40:00,28.2,27.0,30.02,SSW,195,0.0,1.0,95,0.00,,,0.00,meteohub,2013-04-08 05:40:00,
2013-04-08 01:45:00,28.2,27.0,30.02,SSW,196,0.0,1.0,95,0.00,,,0.00,meteohub,2013-04-08 05:45:00,
2013-04-08 01:50:00,28.2,27.0,30.03,SSW,196,0.0,1.0,95,0.00,,,0.00,meteohub,2013-04-08 05:50:00,
2013-04-08 01:55:00,28.8,27.7,30.03,South,169,0.0,1.0,96,0.00,,,0.00,meteohub,2013-04-08 05:55:00,
2013-04-08 02:00:00,28.9,27.7,30.03,SE,133,2.0,2.0,95,0.00,,,0.00,meteohub,2013-04-08 06:00:00,
2013-04-08 02:06:00,29.5,28.2,30.03,SSW,207,0.0,2.0,95,0.00,,,0.00,meteohub,2013-04-08 06:06:00,
2013-04-08 02:11:00,29.5,28.0,30.04,East,100,0.0,2.0,94,0.00,,,0.00,meteohub,2013-04-08 06:11:00,
2013-04-08 02:16:00,29.7,27.9,30.03,ESE,123,1.0,2.0,93,0.00,,,0.00,meteohub,2013-04-08 06:16:00,
2013-04-08 02:21:00,29.7,27.7,30.03,ESE,119,0.0,1.0,92,0.00,,,0.00,meteohub,2013-04-08 06:21:00,
2013-04-08 02:26:00,29.5,27.5,30.03,ESE,119,0.0,1.0,92,0.00,,,0.00,meteohub,2013-04-08 06:26:00,
2013-04-08 02:31:00,29.1,27.1,30.02,SSE,154,0.0,1.0,92,0.00,,,0.00,meteohub,2013-04-08 06:31:00,
2013-04-08 02:36:00,29.1,27.1,30.01,ENE,77,0.0,1.0,92,0.00,,,0.00,meteohub,2013-04-08 06:36:00,
2013-04-08 02:41:00,28.9,27.1,30.01,SE,138,0.0,1.0,93,0.00,,,0.00,meteohub,2013-04-08 06:41:00,
2013-04-08 02:46:00,29.1,27.3,30.00,SE,138,0.0,1.0,93,0.00,,,0.00,meteohub,2013-04-08 06:46:00,
2013-04-08 02:51:00,29.5,27.7,30.00,SE,131,0.0,2.0,93,0.00,,,0.00,meteohub,2013-04-08 06:51:00,
2013-04-08 02:56:00,29.5,27.5,30.00,SE,131,0.0,2.0,92,0.00,,,0.00,meteohub,2013-04-08 06:56:00,
2013-04-08 03:01:00,29.1,27.1,30.00,SE,131,0.0,2.0,92,0.00,,,0.00,meteohub,2013-04-08 07:01:00,
2013-04-08 03:06:00,29.5,27.5,30.01,SSE,151,0.0,0.0,92,0.00,,,0.00,meteohub,2013-04-08 07:06:00,
2013-04-08 03:11:00,29.7,27.7,30.01,SE,131,0.0,1.0,92,0.00,,,0.00,meteohub,2013-04-08 07:11:00,
2013-04-08 03:16:00,29.8,27.9,30.01,ENE,69,0.0,2.0,92,0.00,,,0.00,meteohub,2013-04-08 07:16:00,
2013-04-08 03:22:00,30.4,28.0,30.02,South,181,1.0,3.0,91,0.00,,,0.00,meteohub,2013-04-08 07:22:00,
2013-04-08 03:27:00,30.7,28.2,30.01,ESE,112,1.0,3.0,90,0.00,,,0.00,meteohub,2013-04-08 07:27:00,
2013-04-08 03:32:00,30.7,27.9,30.00,South,184,0.0,3.0,89,0.00,,,0.00,meteohub,2013-04-08 07:32:00,
2013-04-08 03:37:00,30.7,27.9,30.00,East,91,1.0,2.0,89,0.00,,,0.00,meteohub,2013-04-08 07:37:00,
2013-04-08 03:42:00,30.7,27.9,29.99,SE,125,0.0,3.0,89,0.00,,,0.00,meteohub,2013-04-08 07:42:00,
2013-04-08 03:47:00,30.4,27.5,29.99,NE,46,0.0,3.0,89,0.00,,,0.00,meteohub,2013-04-08 07:47:00,
2013-04-08 03:52:00,30.4,27.5,29.99,NE,37,0.0,3.0,89,0.00,,,0.00,meteohub,2013-04-08 07:52:00,
2013-04-08 03:57:00,29.8,27.0,30.00,SW,234,0.0,1.0,89,0.00,,,0.00,meteohub,2013-04-08 07:57:00,
2013-04-08 04:02:00,29.8,27.3,30.01,ESE,120,0.0,1.0,90,0.00,,,0.00,meteohub,2013-04-08 08:02:00,
2013-04-08 04:07:00,30.2,27.7,30.01,WNW,283,1.0,2.0,90,0.00,,,0.00,meteohub,2013-04-08 08:07:00,
2013-04-08 04:12:00,30.6,28.0,30.01,SW,218,1.0,2.0,90,0.00,,,0.00,meteohub,2013-04-08 08:12:00,
2013-04-08 04:17:00,30.7,27.9,30.00,ENE,73,2.0,3.0,89,0.00,,,0.00,meteohub,2013-04-08 08:17:00,
2013-04-08 04:22:00,30.9,28.0,30.00,WSW,250,1.0,3.0,89,0.00,,,0.00,meteohub,2013-04-08 08:22:00,
2013-04-08 04:27:00,30.9,28.0,30.00,NNE,24,0.0,3.0,89,0.00,,,0.00,meteohub,2013-04-08 08:27:00,
2013-04-08 04:32:00,30.9,28.0,29.99,South,185,0.0,3.0,89,0.00,,,0.00,meteohub,2013-04-08 08:32:00,
2013-04-08 04:37:00,30.9,28.0,29.99,ESE,120,0.0,3.0,89,0.00,,,0.00,meteohub,2013-04-08 08:37:00,
2013-04-08 04:42:00,30.7,27.9,29.99,South,181,0.0,3.0,89,0.00,,,0.00,meteohub,2013-04-08 08:42:00,
2013-04-08 04:47:00,30.7,27.9,29.99,ESE,120,0.0,3.0,89,0.00,,,0.00,meteohub,2013-04-08 08:47:00,
2013-04-08 04:52:00,30.7,27.9,29.99,SSE,163,0.0,2.0,89,0.00,,,0.00,meteohub,2013-04-08 08:52:00,
2013-04-08 04:57:00,30.7,27.9,29.99,SSW,192,0.0,3.0,89,0.00,,,0.00,meteohub,2013-04-08 08:57:00,
2013-04-08 05:02:00,30.9,28.0,29.99,ESE,115,1.0,3.0,89,0.00,,,0.00,meteohub,2013-04-08 09:02:00,
2013-04-08 05:07:00,31.1,28.2,29.99,SW,214,1.0,3.0,89,0.00,,,0.00,meteohub,2013-04-08 09:07:00,
2013-04-08 05:12:00,31.3,28.2,29.99,ESE,117,1.0,3.0,88,0.00,,,0.00,meteohub,2013-04-08 09:12:00,
2013-04-08 05:17:00,31.5,28.4,29.99,SSW,203,1.0,4.0,88,0.00,,,0.00,meteohub,2013-04-08 09:17:00,
2013-04-08 05:22:00,31.5,28.4,29.99,SE,134,0.0,6.0,88,0.00,,,0.00,meteohub,2013-04-08 09:22:00,
2013-04-08 05:27:00,31.5,28.4,29.99,SSE,161,0.0,6.0,88,0.00,,,0.00,meteohub,2013-04-08 09:27:00,
2013-04-08 05:32:00,31.3,28.2,29.99,ESE,122,0.0,4.0,88,0.00,,,0.00,meteohub,2013-04-08 09:32:00,
2013-04-08 05:37:00,31.3,28.2,29.99,South,176,2.0,4.0,88,0.00,,,0.00,meteohub,2013-04-08 09:37:00,
2013-04-08 05:42:00,31.1,28.0,29.99,SSE,150,0.0,4.0,88,0.00,,,0.00,meteohub,2013-04-08 09:42:00,
2013-04-08 05:47:00,31.1,28.2,29.99,East,99,1.0,4.0,89,0.00,,,0.00,meteohub,2013-04-08 09:47:00,
2013-04-08 05:52:00,31.5,28.4,29.99,ENE,75,1.0,4.0,88,0.00,,,0.00,meteohub,2013-04-08 09:52:00,
2013-04-08 05:57:00,31.6,28.2,29.99,ENE,67,1.0,4.0,87,0.00,,,0.00,meteohub,2013-04-08 09:57:00,
2013-04-08 06:02:00,31.8,28.4,29.99,SSE,160,0.0,4.0,87,0.00,,,0.00,meteohub,2013-04-08 10:02:00,
2013-04-08 06:08:00,31.8,28.4,29.99,East,85,0.0,3.0,87,0.00,,,0.00,meteohub,2013-04-08 10:08:00,
2013-04-08 06:13:00,31.8,28.4,29.99,ESE,107,0.0,3.0,87,0.00,,,0.00,meteohub,2013-04-08 10:13:00,
2013-04-08 06:18:00,31.8,28.4,29.99,East,100,1.0,3.0,87,0.00,,,0.00,meteohub,2013-04-08 10:18:00,
2013-04-08 06:23:00,31.8,28.4,29.98,ESE,115,1.0,3.0,87,0.00,,,0.00,meteohub,2013-04-08 10:23:00,
2013-04-08 06:28:00,31.5,27.7,29.98,NE,53,1.0,3.0,86,0.00,,,0.00,meteohub,2013-04-08 10:28:00,
2013-04-08 06:33:00,30.9,27.5,29.97,ENE,74,1.0,3.0,87,0.00,,,0.00,meteohub,2013-04-08 10:33:00,
2013-04-08 06:38:00,30.7,27.7,29.98,SSE,147,0.0,3.0,88,0.00,,,0.00,meteohub,2013-04-08 10:38:00,
2013-04-08 06:43:00,30.4,27.5,29.98,SSW,198,0.0,2.0,89,0.00,,,0.00,meteohub,2013-04-08 10:43:00,
2013-04-08 06:48:00,30.0,27.5,29.98,SSE,155,0.0,2.0,90,0.00,,,0.00,meteohub,2013-04-08 10:48:00,
2013-04-08 06:53:00,30.4,27.9,29.98,East,79,0.0,1.0,90,0.00,,,0.00,meteohub,2013-04-08 10:53:00,
2013-04-08 06:58:00,30.6,28.0,29.98,ENE,69,0.0,1.0,90,0.00,,,0.00,meteohub,2013-04-08 10:58:00,
2013-04-08 07:03:00,30.7,27.9,29.98,ENE,69,0.0,3.0,89,0.00,,,0.00,meteohub,2013-04-08 11:03:00,
2013-04-08 07:08:00,30.7,27.9,29.98,ESE,112,0.0,3.0,89,0.00,,,0.00,meteohub,2013-04-08 11:08:00,
2013-04-08 07:13:00,30.6,27.7,29.98,ESE,113,1.0,3.0,89,0.00,,,0.00,meteohub,2013-04-08 11:13:00,
2013-04-08 07:18:00,30.9,28.0,29.97,South,174,2.0,4.0,89,0.00,,,0.00,meteohub,2013-04-08 11:18:00,
2013-04-08 07:24:00,31.3,28.4,29.97,East,93,1.0,4.0,89,0.00,,,0.00,meteohub,2013-04-08 11:24:00,
2013-04-08 07:29:00,31.3,28.2,29.97,SSE,154,0.0,4.0,88,0.00,,,0.00,meteohub,2013-04-08 11:29:00,
2013-04-08 07:34:00,31.5,28.6,29.96,ESE,115,2.0,4.0,89,0.00,,,0.00,meteohub,2013-04-08 11:34:00,
2013-04-08 07:39:00,31.8,28.9,29.97,South,182,3.0,5.0,89,0.00,,,0.00,meteohub,2013-04-08 11:39:00,
2013-04-08 07:45:00,32.2,28.9,29.97,ENE,65,1.0,5.0,88,0.00,,,0.00,meteohub,2013-04-08 11:45:00,
2013-04-08 07:50:00,32.4,28.9,29.97,SE,133,5.0,6.0,87,0.00,,,0.00,meteohub,2013-04-08 11:50:00,
2013-04-08 07:55:00,32.7,29.3,29.97,ESE,116,1.0,6.0,87,0.00,,,0.00,meteohub,2013-04-08 11:55:00,
2013-04-08 08:00:00,33.1,29.7,29.97,SE,132,2.0,6.0,87,0.00,,,0.00,meteohub,2013-04-08 12:00:00,
2013-04-08 08:05:00,33.3,29.5,29.98,SSE,157,2.0,6.0,86,0.00,,,0.00,meteohub,2013-04-08 12:05:00,
2013-04-08 08:10:00,33.4,29.7,29.98,SSE,157,2.0,5.0,86,0.00,,,0.00,meteohub,2013-04-08 12:10:00,
2013-04-08 08:15:00,33.6,29.8,29.98,SSE,147,0.0,5.0,86,0.00,,,0.00,meteohub,2013-04-08 12:15:00,
2013-04-08 08:20:00,33.8,30.0,29.98,SE,126,1.0,6.0,86,0.00,,,0.00,meteohub,2013-04-08 12:20:00,
2013-04-08 08:25:00,34.0,30.0,29.98,ENE,60,1.0,7.0,85,0.00,,,0.00,meteohub,2013-04-08 12:25:00,
2013-04-08 08:30:00,34.2,30.4,29.98,SSE,161,0.0,7.0,86,0.00,,,0.00,meteohub,2013-04-08 12:30:00,
2013-04-08 08:35:00,34.3,30.6,29.98,SE,134,0.0,7.0,86,0.00,,,0.00,meteohub,2013-04-08 12:35:00,
2013-04-08 08:40:00,34.5,30.7,29.98,ESE,112,2.0,4.0,86,0.00,,,0.00,meteohub,2013-04-08 12:40:00,
2013-04-08 08:45:00,34.9,30.9,29.97,ESE,107,2.0,6.0,85,0.00,,,0.00,meteohub,2013-04-08 12:45:00,
2013-04-08 08:50:00,34.9,30.9,29.97,SSE,150,2.0,6.0,85,0.00,,,0.00,meteohub,2013-04-08 12:50:00,
2013-04-08 08:55:00,35.1,30.9,29.97,South,189,1.0,6.0,85,0.00,,,0.00,meteohub,2013-04-08 12:55:00,
2013-04-08 09:00:00,35.2,31.1,29.97,ESE,113,0.0,5.0,85,0.00,,,0.00,meteohub,2013-04-08 13:00:00,
2013-04-08 09:05:00,35.4,31.3,29.96,East,100,1.0,6.0,85,0.00,,,0.00,meteohub,2013-04-08 13:05:00,
2013-04-08 09:10:00,35.8,31.5,29.96,SE,131,3.0,6.0,84,0.00,,,0.00,meteohub,2013-04-08 13:10:00,
2013-04-08 09:15:00,36.0,31.6,29.96,ENE,72,1.0,5.0,84,0.00,,,0.00,meteohub,2013-04-08 13:15:00,
2013-04-08 09:21:00,36.1,31.8,29.95,ENE,65,1.0,6.0,84,0.00,,,0.00,meteohub,2013-04-08 13:21:00,
2013-04-08 09:26:00,36.3,32.0,29.95,SSE,161,1.0,6.0,84,0.00,,,0.00,meteohub,2013-04-08 13:26:00,
2013-04-08 09:31:00,36.7,32.0,29.94,East,82,1.0,6.0,83,0.00,,,0.00,meteohub,2013-04-08 13:31:00,
2013-04-08 09:36:00,36.9,32.2,29.94,SSW,206,1.0,5.0,83,0.00,,,0.00,meteohub,2013-04-08 13:36:00,
2013-04-08 09:41:00,37.0,32.4,29.94,ESE,102,0.0,5.0,83,0.00,,,0.00,meteohub,2013-04-08 13:41:00,
2013-04-08 09:46:00,37.2,32.5,29.93,East,91,8.0,8.0,83,0.00,,,0.00,meteohub,2013-04-08 13:46:00,
2013-04-08 09:51:00,37.2,32.2,29.93,East,84,4.0,10.0,82,0.00,,,0.00,meteohub,2013-04-08 13:51:00,
2013-04-08 09:56:00,37.2,32.2,29.93,SW,235,3.0,10.0,82,0.00,,,0.00,meteohub,2013-04-08 13:56:00,
2013-04-08 10:01:00,37.4,32.4,29.92,NE,55,2.0,10.0,82,0.00,,,0.00,meteohub,2013-04-08 14:01:00,
2013-04-08 10:06:00,37.6,32.5,29.92,ENE,69,2.0,10.0,82,0.00,,,0.00,meteohub,2013-04-08 14:06:00,
2013-04-08 10:11:00,37.8,32.5,29.91,NE,43,6.0,11.0,81,0.00,,,0.00,meteohub,2013-04-08 14:11:00,
2013-04-08 10:16:00,37.8,32.5,29.91,NE,50,2.0,11.0,81,0.00,,,0.00,meteohub,2013-04-08 14:16:00,
2013-04-08 10:21:00,37.8,32.5,29.91,East,81,7.0,11.0,81,0.00,,,0.00,meteohub,2013-04-08 14:21:00,
2013-04-08 10:26:00,37.9,32.7,29.91,ESE,103,3.0,9.0,81,0.00,,,0.00,meteohub,2013-04-08 14:26:00,
2013-04-08 10:31:00,38.1,32.7,29.91,SE,136,7.0,9.0,81,0.00,,,0.00,meteohub,2013-04-08 14:31:00,
2013-04-08 10:37:00,38.1,32.7,29.90,SW,233,5.0,14.0,81,0.00,,,0.00,meteohub,2013-04-08 14:37:00,
2013-04-08 10:42:00,38.1,32.7,29.90,ENE,75,2.0,14.0,81,0.00,,,0.00,meteohub,2013-04-08 14:42:00,
2013-04-08 10:47:00,38.5,33.1,29.90,SSE,152,2.0,13.0,81,0.00,,,0.00,meteohub,2013-04-08 14:47:00,
2013-04-08 10:52:00,38.7,33.3,29.90,ENE,71,3.0,10.0,81,0.00,,,0.00,meteohub,2013-04-08 14:52:00,
2013-04-08 10:57:00,38.8,33.3,29.89,SSW,207,4.0,11.0,80,0.00,,,0.00,meteohub,2013-04-08 14:57:00,
2013-04-08 11:02:00,39.0,33.4,29.89,ESE,122,12.0,12.0,80,0.00,,,0.00,meteohub,2013-04-08 15:02:00,
2013-04-08 11:07:00,39.2,33.6,29.89,NE,39,2.0,13.0,80,0.00,,,0.00,meteohub,2013-04-08 15:07:00,
2013-04-08 11:12:00,39.4,33.8,29.89,WSW,250,1.0,13.0,80,0.00,,,0.00,meteohub,2013-04-08 15:12:00,
2013-04-08 11:17:00,39.6,34.0,29.89,SSW,203,4.0,13.0,80,0.00,,,0.00,meteohub,2013-04-08 15:17:00,
2013-04-08 11:22:00,39.9,34.0,29.88,East,86,1.0,13.0,79,0.00,,,0.00,meteohub,2013-04-08 15:22:00,
2013-04-08 11:27:00,40.1,34.2,29.88,NW,315,4.0,13.0,79,0.00,,,0.00,meteohub,2013-04-08 15:27:00,
2013-04-08 11:32:00,40.3,34.0,29.88,East,88,4.0,8.0,78,0.00,,,0.00,meteohub,2013-04-08 15:32:00,
2013-04-08 11:37:00,40.5,34.2,29.87,SE,129,6.0,8.0,78,0.00,,,0.00,meteohub,2013-04-08 15:37:00,
2013-04-08 11:42:00,40.6,34.0,29.87,SSE,162,5.0,9.0,77,0.00,,,0.00,meteohub,2013-04-08 15:42:00,
2013-04-08 11:47:00,40.8,34.2,29.86,SE,130,2.0,9.0,77,0.00,,,0.00,meteohub,2013-04-08 15:47:00,
2013-04-08 11:52:00,41.0,34.0,29.86,South,183,1.0,8.0,76,0.00,,,0.00,meteohub,2013-04-08 15:52:00,
2013-04-08 11:57:00,41.4,34.0,29.86,ESE,115,3.0,7.0,75,0.00,,,0.00,meteohub,2013-04-08 15:57:00,
2013-04-08 12:02:00,41.5,34.5,29.87,East,92,2.0,8.0,76,0.00,,,0.00,meteohub,2013-04-08 16:02:00,
2013-04-08 12:07:00,41.7,34.3,29.86,East,92,1.0,8.0,75,0.00,,,0.00,meteohub,2013-04-08 16:07:00,
2013-04-08 12:12:00,41.7,34.3,29.86,SSW,203,9.0,9.0,75,0.00,,,0.00,meteohub,2013-04-08 16:12:00,
2013-04-08 12:18:00,41.7,34.3,29.86,South,169,4.0,14.0,75,0.00,,,0.00,meteohub,2013-04-08 16:18:00,
2013-04-08 12:23:00,41.9,34.5,29.86,ENE,58,3.0,14.0,75,0.00,,,0.00,meteohub,2013-04-08 16:23:00,
2013-04-08 12:28:00,42.1,34.7,29.86,SSE,161,4.0,14.0,75,0.00,,,0.00,meteohub,2013-04-08 16:28:00,
2013-04-08 12:33:00,42.3,34.5,29.86,SE,131,4.0,7.0,74,0.00,,,0.00,meteohub,2013-04-08 16:33:00,
2013-04-08 12:38:00,42.3,34.5,29.86,East,92,2.0,9.0,74,0.00,,,0.00,meteohub,2013-04-08 16:38:00,
2013-04-08 12:43:00,42.1,34.0,29.86,NE,48,3.0,9.0,73,0.00,,,0.00,meteohub,2013-04-08 16:43:00,
2013-04-08 12:48:00,42.1,34.0,29.85,East,96,4.0,10.0,73,0.00,,,0.00,meteohub,2013-04-08 16:48:00,
2013-04-08 12:53:00,42.1,34.0,29.86,SSW,209,3.0,10.0,73,0.00,,,0.00,meteohub,2013-04-08 16:53:00,
2013-04-08 12:58:00,42.1,34.0,29.86,East,84,1.0,12.0,73,0.00,,,0.00,meteohub,2013-04-08 16:58:00,
2013-04-08 13:03:00,42.1,34.3,29.86,ENE,61,5.0,12.0,74,0.00,,,0.00,meteohub,2013-04-08 17:03:00,
2013-04-08 13:08:00,42.1,34.7,29.87,WSW,245,1.0,12.0,75,0.00,,,0.00,meteohub,2013-04-08 17:08:00,
2013-04-08 13:13:00,41.9,34.9,29.88,NNE,32,1.0,8.0,76,0.00,,,0.00,meteohub,2013-04-08 17:13:00,
2013-04-08 13:22:00,41.5,34.9,29.87,ENE,73,2.0,9.0,77,0.00,,,0.00,meteohub,2013-04-08 17:22:00,
2013-04-08 13:27:00,41.4,35.1,29.87,South,179,1.0,9.0,78,0.01,,,0.01,meteohub,2013-04-08 17:27:00,
2013-04-08 13:32:00,41.4,35.4,29.87,ESE,107,5.0,9.0,79,0.01,,,0.01,meteohub,2013-04-08 17:32:00,
2013-04-08 13:37:00,41.2,35.2,29.87,ESE,122,6.0,9.0,79,0.01,,,0.01,meteohub,2013-04-08 17:37:00,
2013-04-08 13:42:00,41.0,35.6,29.86,East,92,2.0,11.0,81,0.01,,,0.01,meteohub,2013-04-08 17:42:00,
2013-04-08 13:47:00,40.8,36.1,29.86,East,83,4.0,11.0,83,0.02,,,0.02,meteohub,2013-04-08 17:47:00,
2013-04-08 13:52:00,40.6,36.1,29.86,SE,136,4.0,11.0,84,0.03,,,0.03,meteohub,2013-04-08 17:52:00,
2013-04-08 13:57:00,40.6,36.5,29.86,ESE,119,2.0,9.0,85,0.03,,,0.03,meteohub,2013-04-08 17:57:00,
2013-04-08 14:02:00,40.5,36.7,29.85,NE,44,1.0,7.0,86,0.04,,,0.04,meteohub,2013-04-08 18:02:00,
2013-04-08 14:07:00,40.5,36.9,29.85,WSW,258,0.0,5.0,87,0.05,,,0.05,meteohub,2013-04-08 18:07:00,
2013-04-08 14:12:00,40.5,36.9,29.85,SSE,148,1.0,5.0,87,0.06,,,0.06,meteohub,2013-04-08 18:12:00,
2013-04-08 14:17:00,40.6,37.0,29.84,NNE,29,3.0,5.0,87,0.06,,,0.06,meteohub,2013-04-08 18:17:00,
2013-04-08 14:22:00,40.3,36.7,29.84,NE,42,2.0,3.0,87,0.05,,,0.06,meteohub,2013-04-08 18:22:00,
2013-04-08 14:27:00,40.3,36.7,29.83,NNW,335,2.0,5.0,87,0.05,,,0.06,meteohub,2013-04-08 18:27:00,
2013-04-08 14:32:00,40.3,37.0,29.83,NE,50,2.0,7.0,88,0.06,,,0.07,meteohub,2013-04-08 18:32:00,
2013-04-08 14:37:00,40.1,36.9,29.82,North,351,1.0,7.0,88,0.06,,,0.07,meteohub,2013-04-08 18:37:00,
2013-04-08 14:42:00,40.3,37.0,29.82,NE,48,2.0,7.0,88,0.05,,,0.07,meteohub,2013-04-08 18:42:00,
2013-04-08 14:47:00,40.3,37.0,29.81,NNE,17,5.0,5.0,88,0.05,,,0.07,meteohub,2013-04-08 18:47:00,
2013-04-08 14:52:00,40.3,37.0,29.81,NNW,333,3.0,6.0,88,0.05,,,0.08,meteohub,2013-04-08 18:52:00,
2013-04-08 14:57:00,40.3,37.0,29.81,North,349,0.0,7.0,88,0.04,,,0.08,meteohub,2013-04-08 18:57:00,
2013-04-08 15:02:00,40.3,36.7,29.81,North,350,4.0,7.0,87,0.04,,,0.08,meteohub,2013-04-08 19:02:00,
2013-04-08 15:07:00,40.3,37.0,29.81,North,356,0.0,7.0,88,0.03,,,0.08,meteohub,2013-04-08 19:07:00,
2013-04-08 15:12:00,40.3,37.0,29.80,NNE,17,3.0,7.0,88,0.02,,,0.08,meteohub,2013-04-08 19:12:00,
2013-04-08 15:17:00,40.3,37.0,29.80,WNW,285,1.0,7.0,88,0.02,,,0.08,meteohub,2013-04-08 19:17:00,
2013-04-08 15:22:00,40.5,36.9,29.80,ENE,72,2.0,5.0,87,0.02,,,0.08,meteohub,2013-04-08 19:22:00,
2013-04-08 15:28:00,40.5,37.2,29.80,NE,43,0.0,7.0,88,0.02,,,0.08,meteohub,2013-04-08 19:28:00,
2013-04-08 15:33:00,40.5,37.2,29.79,NNW,339,2.0,7.0,88,0.01,,,0.08,meteohub,2013-04-08 19:33:00,
2013-04-08 15:38:00,40.3,37.0,29.79,NNE,26,3.0,5.0,88,0.02,,,0.09,meteohub,2013-04-08 19:38:00,
2013-04-08 15:43:00,40.1,37.0,29.79,North,356,1.0,7.0,89,0.02,,,0.09,meteohub,2013-04-08 19:43:00,
2013-04-08 15:48:00,39.9,36.9,29.79,North,1,3.0,7.0,89,0.02,,,0.09,meteohub,2013-04-08 19:48:00,
2013-04-08 15:53:00,39.7,36.7,29.78,NW,315,3.0,6.0,89,0.02,,,0.10,meteohub,2013-04-08 19:53:00,
2013-04-08 15:58:00,39.7,37.0,29.78,NE,36,6.0,7.0,90,0.02,,,0.10,meteohub,2013-04-08 19:58:00,
2013-04-08 16:03:00,39.6,36.5,29.78,NNW,330,6.0,7.0,89,0.02,,,0.10,meteohub,2013-04-08 20:03:00,
2013-04-08 16:08:00,39.6,36.9,29.78,North,8,3.0,12.0,90,0.03,,,0.11,meteohub,2013-04-08 20:08:00,
2013-04-08 16:13:00,39.4,37.0,29.79,NNE,32,4.0,12.0,91,0.03,,,0.11,meteohub,2013-04-08 20:13:00,
2013-04-08 16:18:00,39.4,37.0,29.79,NNW,342,3.0,12.0,91,0.04,,,0.12,meteohub,2013-04-08 20:18:00,
2013-04-08 16:23:00,39.2,36.9,29.79,North,355,3.0,8.0,91,0.04,,,0.12,meteohub,2013-04-08 20:23:00,
2013-04-08 16:28:00,39.0,36.7,29.79,North,357,2.0,7.0,91,0.04,,,0.12,meteohub,2013-04-08 20:28:00,
2013-04-08 16:33:00,39.0,36.9,29.80,North,5,2.0,7.0,92,0.04,,,0.13,meteohub,2013-04-08 20:33:00,
2013-04-08 16:38:00,39.0,36.9,29.80,NW,320,3.0,7.0,92,0.05,,,0.14,meteohub,2013-04-08 20:38:00,
2013-04-08 16:43:00,38.8,36.7,29.80,West,260,0.0,5.0,92,0.06,,,0.15,meteohub,2013-04-08 20:43:00,
2013-04-08 16:48:00,38.8,37.0,29.80,NNW,335,2.0,5.0,93,0.06,,,0.15,meteohub,2013-04-08 20:48:00,
2013-04-08 16:53:00,38.8,37.0,29.80,North,8,2.0,3.0,93,0.06,,,0.16,meteohub,2013-04-08 20:53:00,
2013-04-08 16:58:00,38.8,37.0,29.80,NE,38,1.0,4.0,93,0.07,,,0.17,meteohub,2013-04-08 20:58:00,
2013-04-08 17:03:00,38.8,37.0,29.81,NNW,330,2.0,4.0,93,0.06,,,0.17,meteohub,2013-04-08 21:03:00,
2013-04-08 17:08:00,38.8,37.0,29.81,North,0,1.0,4.0,93,0.07,,,0.18,meteohub,2013-04-08 21:08:00,
2013-04-08 17:13:00,38.8,37.0,29.81,North,354,2.0,4.0,93,0.07,,,0.18,meteohub,2013-04-08 21:13:00,
2013-04-08 17:18:00,38.8,37.0,29.82,ESE,119,0.0,4.0,93,0.07,,,0.19,meteohub,2013-04-08 21:18:00,
2013-04-08 17:23:00,38.8,37.0,29.82,NW,325,3.0,4.0,93,0.08,,,0.20,meteohub,2013-04-08 21:23:00,
2013-04-08 17:28:00,38.7,36.9,29.82,NW,312,4.0,4.0,93,0.07,,,0.20,meteohub,2013-04-08 21:28:00,
2013-04-08 17:33:00,38.7,36.9,29.82,West,273,1.0,5.0,93,0.08,,,0.21,meteohub,2013-04-08 21:33:00,
2013-04-08 17:38:00,38.7,36.9,29.82,North,352,2.0,6.0,93,0.08,,,0.22,meteohub,2013-04-08 21:38:00,
2013-04-08 17:43:00,38.5,36.7,29.82,NE,36,4.0,6.0,93,0.07,,,0.22,meteohub,2013-04-08 21:43:00,
2013-04-08 17:48:00,38.7,36.9,29.82,NE,43,0.0,6.0,93,0.07,,,0.23,meteohub,2013-04-08 21:48:00,
2013-04-08 17:53:00,38.7,36.9,29.83,ENE,65,0.0,6.0,93,0.07,,,0.23,meteohub,2013-04-08 21:53:00,
2013-04-08 17:58:00,38.5,36.7,29.83,ENE,70,0.0,6.0,93,0.06,,,0.23,meteohub,2013-04-08 21:58:00,
2013-04-08 18:03:00,38.5,36.7,29.83,WSW,253,1.0,3.0,93,0.07,,,0.24,meteohub,2013-04-08 22:03:00,
2013-04-08 18:08:00,38.3,36.5,29.83,North,356,2.0,4.0,93,0.06,,,0.24,meteohub,2013-04-08 22:08:00,
2013-04-08 18:13:00,38.1,36.3,29.83,NNE,24,2.0,6.0,93,0.06,,,0.25,meteohub,2013-04-08 22:13:00,
2013-04-08 18:18:00,38.1,36.5,29.83,NE,51,2.0,6.0,94,0.05,,,0.25,meteohub,2013-04-08 22:18:00,
2013-04-08 18:23:00,38.1,36.5,29.84,NW,326,3.0,6.0,94,0.06,,,0.26,meteohub,2013-04-08 22:23:00,
2013-04-08 18:29:00,38.1,36.3,29.83,NNE,25,0.0,4.0,93,0.06,,,0.27,meteohub,2013-04-08 22:29:00,
2013-04-08 18:34:00,38.3,36.7,29.84,NE,34,0.0,6.0,94,0.06,,,0.27,meteohub,2013-04-08 22:34:00,
2013-04-08 18:39:00,38.3,36.7,29.84,WSW,252,0.0,6.0,94,0.06,,,0.28,meteohub,2013-04-08 22:39:00,
2013-04-08 18:44:00,38.3,36.7,29.84,NW,309,1.0,6.0,94,0.06,,,0.28,meteohub,2013-04-08 22:44:00,
2013-04-08 18:49:00,38.3,36.7,29.85,WNW,294,0.0,5.0,94,0.06,,,0.29,meteohub,2013-04-08 22:49:00,
2013-04-08 18:54:00,38.1,36.5,29.85,WNW,288,1.0,5.0,94,0.06,,,0.29,meteohub,2013-04-08 22:54:00,
2013-04-08 18:59:00,38.1,36.5,29.86,WNW,287,2.0,5.0,94,0.06,,,0.29,meteohub,2013-04-08 22:59:00,
2013-04-08 19:04:00,37.9,36.3,29.86,North,6,0.0,3.0,94,0.06,,,0.30,meteohub,2013-04-08 23:04:00,
2013-04-08 19:09:00,37.9,36.3,29.86,North,358,1.0,3.0,94,0.06,,,0.30,meteohub,2013-04-08 23:09:00,
2013-04-08 19:14:00,37.9,36.7,29.86,NNW,336,1.0,5.0,95,0.05,,,0.30,meteohub,2013-04-08 23:14:00,
2013-04-08 19:19:00,37.9,36.3,29.86,NNE,13,1.0,5.0,94,0.04,,,0.30,meteohub,2013-04-08 23:19:00,
2013-04-08 19:24:00,37.9,36.7,29.86,NW,320,2.0,5.0,95,0.04,,,0.30,meteohub,2013-04-08 23:24:00,
2013-04-08 19:29:00,37.9,36.7,29.87,WNW,299,1.0,5.0,95,0.03,,,0.30,meteohub,2013-04-08 23:29:00,
2013-04-08 19:34:00,37.9,36.7,29.87,NW,313,0.0,5.0,95,0.02,,,0.30,meteohub,2013-04-08 23:34:00,
2013-04-08 19:39:00,37.9,36.7,29.87,NW,313,0.0,5.0,95,0.02,,,0.30,meteohub,2013-04-08 23:39:00,
2013-04-08 19:44:00,37.8,36.5,29.88,WNW,290,3.0,4.0,95,0.01,,,0.30,meteohub,2013-04-08 23:44:00,
2013-04-08 19:50:00,37.8,36.1,29.88,North,3,2.0,2.0,94,0.01,,,0.30,meteohub,2013-04-08 23:50:00,
2013-04-08 19:55:00,37.6,36.0,29.88,North,9,1.0,5.0,94,0.00,,,0.30,meteohub,2013-04-08 23:55:00,
2013-04-08 20:00:00,37.6,36.0,29.88,NNW,348,2.0,5.0,94,0.00,,,0.30,meteohub,2013-04-09 00:00:00,
2013-04-08 20:05:00,37.6,36.0,29.89,NNE,13,3.0,5.0,94,0.00,,,0.00,meteohub,2013-04-09 00:05:00,
2013-04-08 20:10:00,37.4,35.8,29.89,North,351,3.0,5.0,94,0.00,,,0.00,meteohub,2013-04-09 00:10:00,
2013-04-08 20:15:00,37.2,35.6,29.90,NNW,332,2.0,4.0,94,0.00,,,0.00,meteohub,2013-04-09 00:15:00,
2013-04-08 20:20:00,37.0,35.4,29.90,NNE,17,2.0,3.0,94,0.00,,,0.00,meteohub,2013-04-09 00:20:00,
2013-04-08 20:25:00,36.9,35.2,29.90,NNE,17,2.0,3.0,94,0.00,,,0.00,meteohub,2013-04-09 00:25:00,
2013-04-08 20:30:00,36.9,35.2,29.90,NNW,328,1.0,4.0,94,0.00,,,0.00,meteohub,2013-04-09 00:30:00,
2013-04-08 20:35:00,36.7,35.4,29.91,North,351,3.0,4.0,95,0.00,,,0.00,meteohub,2013-04-09 00:35:00,
2013-04-08 20:40:00,36.7,35.4,29.91,NE,35,0.0,4.0,95,0.00,,,0.00,meteohub,2013-04-09 00:40:00,
2013-04-08 20:45:00,36.7,35.4,29.92,South,182,0.0,4.0,95,0.00,,,0.00,meteohub,2013-04-09 00:45:00,
2013-04-08 20:50:00,36.7,35.4,29.92,East,96,1.0,4.0,95,0.00,,,0.00,meteohub,2013-04-09 00:50:00,
2013-04-08 20:55:00,36.7,35.1,29.92,East,93,0.0,3.0,94,0.00,,,0.00,meteohub,2013-04-09 00:55:00,
2013-04-08 21:00:00,36.7,35.1,29.91,NE,49,1.0,3.0,94,0.00,,,0.00,meteohub,2013-04-09 01:00:00,
2013-04-08 21:05:00,36.7,35.1,29.92,NE,38,0.0,3.0,94,0.00,,,0.00,meteohub,2013-04-09 01:05:00,
2013-04-08 21:11:00,36.5,34.9,29.93,East,83,1.0,3.0,94,0.00,,,0.00,meteohub,2013-04-09 01:11:00,
2013-04-08 21:16:00,36.5,34.9,29.94,NNW,332,1.0,3.0,94,0.00,,,0.00,meteohub,2013-04-09 01:16:00,
2013-04-08 21:21:00,36.3,34.7,29.93,ENE,58,1.0,3.0,94,0.00,,,0.00,meteohub,2013-04-09 01:21:00,
2013-04-08 21:26:00,36.5,34.9,29.93,East,79,0.0,3.0,94,0.00,,,0.00,meteohub,2013-04-09 01:26:00,
2013-04-08 21:31:00,36.3,34.7,29.94,NE,37,0.0,3.0,94,0.00,,,0.00,meteohub,2013-04-09 01:31:00,
2013-04-08 21:36:00,36.3,34.7,29.94,WNW,290,0.0,3.0,94,0.00,,,0.00,meteohub,2013-04-09 01:36:00,
2013-04-08 21:41:00,36.3,34.7,29.95,North,355,2.0,3.0,94,0.00,,,0.00,meteohub,2013-04-09 01:41:00,
2013-04-08 21:46:00,36.3,34.7,29.95,NW,313,3.0,3.0,94,0.00,,,0.00,meteohub,2013-04-09 01:46:00,
2013-04-08 21:52:00,36.3,34.7,29.96,North,3,0.0,3.0,94,0.00,,,0.00,meteohub,2013-04-09 01:52:00,
2013-04-08 21:57:00,36.3,34.7,29.96,North,351,1.0,3.0,94,0.00,,,0.00,meteohub,2013-04-09 01:57:00,
2013-04-08 22:02:00,36.3,34.7,29.96,North,351,1.0,3.0,94,0.00,,,0.00,meteohub,2013-04-09 02:02:00,
2013-04-08 22:07:00,36.3,34.7,29.96,NNE,15,0.0,2.0,94,0.00,,,0.00,meteohub,2013-04-09 02:07:00,
2013-04-08 22:12:00,36.1,34.5,29.96,NW,321,0.0,2.0,94,0.00,,,0.00,meteohub,2013-04-09 02:12:00,
2013-04-08 22:17:00,36.1,34.5,29.96,NW,312,1.0,3.0,94,0.00,,,0.00,meteohub,2013-04-09 02:17:00,
2013-04-08 22:22:00,36.1,34.5,29.97,WSW,237,0.0,3.0,94,0.00,,,0.00,meteohub,2013-04-09 02:22:00,
2013-04-08 22:27:00,36.3,35.1,29.97,SW,233,0.0,3.0,95,0.00,,,0.00,meteohub,2013-04-09 02:27:00,
2013-04-08 22:32:00,36.3,34.7,29.98,SW,226,0.0,2.0,94,0.00,,,0.00,meteohub,2013-04-09 02:32:00,
2013-04-08 22:37:00,36.1,34.5,29.98,SW,224,0.0,1.0,94,0.00,,,0.00,meteohub,2013-04-09 02:37:00,
2013-04-08 22:42:00,36.1,34.5,29.98,SW,224,0.0,1.0,94,0.00,,,0.00,meteohub,2013-04-09 02:42:00,
2013-04-08 22:47:00,36.1,34.5,29.99,SW,226,0.0,1.0,94,0.00,,,0.00,meteohub,2013-04-09 02:47:00,
2013-04-08 22:52:00,36.1,34.5,29.99,SW,224,0.0,1.0,94,0.00,,,0.00,meteohub,2013-04-09 02:52:00,
2013-04-08 22:57:00,36.1,34.5,29.99,ENE,71,0.0,2.0,94,0.00,,,0.00,meteohub,2013-04-09 02:57:00,
2013-04-08 23:02:00,36.3,34.7,29.99,SSE,147,0.0,2.0,94,0.00,,,0.00,meteohub,2013-04-09 03:02:00,
2013-04-08 23:07:00,36.3,34.7,29.99,East,97,0.0,2.0,94,0.00,,,0.00,meteohub,2013-04-09 03:07:00,
2013-04-08 23:12:00,36.3,34.7,29.99,ESE,102,0.0,1.0,94,0.00,,,0.00,meteohub,2013-04-09 03:12:00,
2013-04-08 23:17:00,36.1,34.5,29.99,ESE,102,0.0,1.0,94,0.00,,,0.00,meteohub,2013-04-09 03:17:00,
2013-04-08 23:22:00,36.1,34.5,29.99,SSE,164,0.0,1.0,94,0.00,,,0.00,meteohub,2013-04-09 03:22:00,
2013-04-08 23:27:00,36.1,34.9,29.99,SSE,161,0.0,1.0,95,0.00,,,0.00,meteohub,2013-04-09 03:27:00,
2013-04-08 23:32:00,36.1,34.9,29.99,SSE,161,0.0,1.0,95,0.00,,,0.00,meteohub,2013-04-09 03:32:00,
2013-04-08 23:37:00,36.0,34.7,30.00,SSE,161,0.0,1.0,95,0.00,,,0.00,meteohub,2013-04-09 03:37:00,
2013-04-08 23:42:00,36.0,34.7,29.99,SSE,161,0.0,0.0,95,0.00,,,0.00,meteohub,2013-04-09 03:42:00,
2013-04-08 23:47:00,36.0,34.7,29.99,SSE,156,0.0,0.0,95,0.00,,,0.00,meteohub,2013-04-09 03:47:00,
2013-04-08 23:52:00,36.0,34.7,29.99,SSE,155,0.0,1.0,95,0.00,,,0.00,meteohub,2013-04-09 03:52:00,
2013-04-08 23:57:00,36.0,34.7,29.99,SSE,155,0.0,1.0,95,0.00,,,0.00,meteohub,2013-04-09 03:57:00,